createdAt,value
2022-11-08T00:00:08.445Z,78.6
2022-11-08T00:01:12.158Z,78.6
2022-11-08T00:02:15.438Z,78.7
2022-11-08T00:03:19.540Z,78.6
2022-11-08T00:04:22.809Z,78.6
2022-11-08T00:05:26.331Z,78.7
2022-11-08T00:06:28.940Z,78.7
2022-11-08T00:07:31.777Z,78.6
2022-11-08T00:08:34.672Z,78.6
2022-11-08T00:09:37.750Z,78.6
2022-11-08T00:10:40.742Z,78.6
2022-11-08T00:11:44.400Z,78.6
2022-11-08T00:12:47.645Z,78.6
2022-11-08T00:13:50.366Z,78.7
2022-11-08T00:14:53.357Z,78.7
2022-11-08T00:15:56.591Z,78.7
2022-11-08T00:17:00.021Z,78.7
2022-11-08T00:18:02.200Z,78.6
2022-11-08T00:19:05.592Z,78.6
2022-11-08T00:20:08.589Z,78.6
2022-11-08T00:21:11.113Z,78.6
2022-11-08T00:22:14.051Z,78.6
2022-11-08T00:23:17.090Z,78.7
2022-11-08T00:24:20.160Z,78.7
2022-11-08T00:25:22.152Z,78.6
2022-11-08T00:26:25.219Z,78.6
2022-11-08T00:27:27.872Z,78.6
2022-11-08T00:28:30.964Z,78.7
2022-11-08T00:29:33.830Z,78.7
2022-11-08T00:30:36.710Z,78.7
2022-11-08T00:31:40.443Z,78.7
2022-11-08T00:32:43.597Z,78.6
2022-11-08T00:33:46.672Z,78.6
2022-11-08T00:34:50.244Z,78.6
2022-11-08T00:35:53.331Z,78.8
2022-11-08T00:36:56.604Z,78.7
2022-11-08T00:37:59.416Z,78.7
2022-11-08T00:39:02.255Z,78.7
2022-11-08T00:40:05.346Z,78.7
2022-11-08T00:41:08.433Z,78.7
2022-11-08T00:42:11.878Z,78.6
2022-11-08T00:43:15.174Z,78.6
2022-11-08T00:44:18.394Z,78.7
2022-11-08T00:45:21.469Z,78.6
2022-11-08T00:46:24.349Z,78.7
2022-11-08T00:47:27.501Z,78.7
2022-11-08T00:48:30.859Z,78.6
2022-11-08T00:49:34.081Z,78.6
2022-11-08T00:50:37.469Z,78.7
2022-11-08T00:51:39.161Z,78.7
2022-11-08T00:52:41.683Z,78.6
2022-11-08T00:53:44.677Z,78.6
2022-11-08T00:54:48.145Z,78.6
2022-11-08T00:55:51.029Z,78.6
2022-11-08T00:56:53.815Z,78.5
2022-11-08T00:58:01.920Z,78.6
2022-11-08T00:59:05.650Z,78.7
2022-11-08T01:00:09.303Z,78.7
2022-11-08T01:01:12.391Z,78.6
2022-11-08T01:02:16.097Z,78.6
2022-11-08T01:03:19.394Z,78.6
2022-11-08T01:04:22.541Z,78.7
2022-11-08T01:05:25.126Z,78.8
2022-11-08T01:06:27.978Z,78.9
2022-11-08T01:07:30.485Z,78.9
2022-11-08T01:08:32.930Z,79
2022-11-08T01:09:35.454Z,79.1
2022-11-08T01:10:38.090Z,79.1
2022-11-08T01:11:40.915Z,79
2022-11-08T01:12:43.156Z,79.1
2022-11-08T01:13:45.957Z,79
2022-11-08T01:14:48.847Z,79
2022-11-08T01:15:52.658Z,78.9
2022-11-08T01:16:55.369Z,79
2022-11-08T01:17:58.458Z,79
2022-11-08T01:19:01.211Z,79.1
2022-11-08T01:20:05.283Z,79
2022-11-08T01:21:08.464Z,79.1
2022-11-08T01:22:12.296Z,79.2
2022-11-08T01:23:15.317Z,79.2
2022-11-08T01:24:18.716Z,79.2
2022-11-08T01:25:21.986Z,79.2
2022-11-08T01:26:24.822Z,79.2
2022-11-08T01:27:27.621Z,79.1
2022-11-08T01:28:30.414Z,79.1
2022-11-08T01:29:33.587Z,79.2
2022-11-08T01:30:36.061Z,79.2
2022-11-08T01:31:39.807Z,79.1
2022-11-08T01:32:43.140Z,79.1
2022-11-08T01:33:52.992Z,79.1
2022-11-08T01:34:55.802Z,79.1
2022-11-08T01:35:58.876Z,79
2022-11-08T01:37:01.336Z,79
2022-11-08T01:38:04.183Z,79
2022-11-08T01:39:06.690Z,79
2022-11-08T01:40:08.861Z,78.9
2022-11-08T01:41:11.644Z,79
2022-11-08T01:42:14.470Z,79.1
2022-11-08T01:43:17.632Z,79.1
2022-11-08T01:44:20.357Z,79.1
2022-11-08T01:45:22.966Z,79.1
2022-11-08T01:46:25.790Z,79.1
2022-11-08T01:47:28.901Z,79.1
2022-11-08T01:48:31.619Z,79.1
2022-11-08T01:49:35.050Z,79.1
2022-11-08T01:50:38.249Z,79
2022-11-08T01:51:41.395Z,78.9
2022-11-08T01:52:44.279Z,78.9
2022-11-08T01:53:47.471Z,78.8
2022-11-08T01:54:50.067Z,78.9
2022-11-08T01:55:53.214Z,78.9
2022-11-08T01:56:55.657Z,78.9
2022-11-08T01:57:58.558Z,78.9
2022-11-08T01:59:01.627Z,78.8
2022-11-08T02:00:04.255Z,78.9
2022-11-08T02:01:07.325Z,79
2022-11-08T02:02:11.102Z,79
2022-11-08T02:03:15.670Z,79
2022-11-08T02:04:18.662Z,79.1
2022-11-08T02:05:21.271Z,79.1
2022-11-08T02:06:24.378Z,79.1
2022-11-08T02:07:27.321Z,79.2
2022-11-08T02:08:30.116Z,79.2
2022-11-08T02:09:33.238Z,79.2
2022-11-08T02:10:36.401Z,79.3
2022-11-08T02:11:39.848Z,79.5
2022-11-08T02:12:42.845Z,79.5
2022-11-08T02:13:46.213Z,79.6
2022-11-08T02:14:49.718Z,79.5
2022-11-08T02:15:53.123Z,79.5
2022-11-08T02:16:56.859Z,79.5
2022-11-08T02:17:59.959Z,79.6
2022-11-08T02:19:03.064Z,79.6
2022-11-08T02:20:06.521Z,79.8
2022-11-08T02:21:09.587Z,79.8
2022-11-08T02:22:13.269Z,79.9
2022-11-08T02:23:16.613Z,80
2022-11-08T02:24:19.495Z,80
2022-11-08T02:25:22.324Z,79.9
2022-11-08T02:26:25.381Z,80
2022-11-08T02:27:28.735Z,80
2022-11-08T02:28:31.677Z,80
2022-11-08T02:29:34.776Z,80
2022-11-08T02:30:37.936Z,80
2022-11-08T02:31:40.714Z,80
2022-11-08T02:32:43.871Z,80.1
2022-11-08T02:33:46.360Z,80.2
2022-11-08T02:34:49.738Z,80.2
2022-11-08T02:35:52.543Z,80.3
2022-11-08T02:36:55.599Z,80.3
2022-11-08T02:37:58.628Z,80.2
2022-11-08T02:39:02.356Z,80.1
2022-11-08T02:40:05.715Z,80.1
2022-11-08T02:41:08.901Z,80.1
2022-11-08T02:42:11.771Z,80.2
2022-11-08T02:43:14.987Z,80.2
2022-11-08T02:44:17.421Z,80.3
2022-11-08T02:45:20.598Z,80.2
2022-11-08T02:46:23.174Z,80.2
2022-11-08T02:47:26.608Z,80.2
2022-11-08T02:48:30.041Z,80.1
2022-11-08T02:49:32.898Z,80.2
2022-11-08T02:50:36.271Z,80.1
2022-11-08T02:51:39.720Z,80.1
2022-11-08T02:52:43.182Z,80.1
2022-11-08T02:53:46.273Z,80
2022-11-08T02:54:49.348Z,80
2022-11-08T02:55:52.501Z,80.1
2022-11-08T02:56:55.922Z,80.2
2022-11-08T02:57:58.463Z,80.2
2022-11-08T02:59:00.718Z,80.2
2022-11-08T03:00:03.518Z,80.1
2022-11-08T03:01:06.679Z,80.2
2022-11-08T03:02:10.827Z,80.2
2022-11-08T03:03:14.573Z,80.2
2022-11-08T03:04:17.110Z,80.2
2022-11-08T03:05:19.749Z,80.2
2022-11-08T03:06:22.667Z,80.3
2022-11-08T03:07:26.554Z,80.3
2022-11-08T03:08:29.622Z,80.3
2022-11-08T03:09:32.443Z,80.3
2022-11-08T03:10:35.876Z,80.3
2022-11-08T03:11:39.337Z,80.3
2022-11-08T03:12:42.481Z,80.3
2022-11-08T03:13:45.662Z,80.3
2022-11-08T03:14:47.819Z,80.3
2022-11-08T03:15:49.969Z,80.3
2022-11-08T03:16:53.496Z,80.3
2022-11-08T03:17:56.383Z,80.3
2022-11-08T03:18:59.834Z,80.4
2022-11-08T03:20:02.842Z,80.4
2022-11-08T03:21:05.586Z,80.3
2022-11-08T03:22:09.111Z,80.4
2022-11-08T03:23:13.113Z,80.5
2022-11-08T03:24:16.174Z,80.4
2022-11-08T03:25:19.601Z,80.5
2022-11-08T03:26:23.325Z,80.5
2022-11-08T03:27:26.320Z,80.4
2022-11-08T03:28:30.572Z,80.3
2022-11-08T03:29:33.088Z,80.4
2022-11-08T03:30:36.082Z,80.4
2022-11-08T03:31:39.151Z,80.4
2022-11-08T03:32:42.472Z,80.5
2022-11-08T03:33:45.259Z,80.5
2022-11-08T03:34:48.238Z,80.5
2022-11-08T03:35:51.605Z,80.6
2022-11-08T03:36:55.014Z,80.6
2022-11-08T03:37:58.666Z,80.6
2022-11-08T03:39:01.742Z,80.6
2022-11-08T03:40:05.247Z,80.6
2022-11-08T03:41:09.011Z,80.7
2022-11-08T03:42:11.973Z,80.8
2022-11-08T03:43:15.050Z,80.7
2022-11-08T03:44:17.892Z,80.7
2022-11-08T03:45:20.704Z,80.7
2022-11-08T03:46:24.093Z,80.8
2022-11-08T03:47:27.354Z,80.8
2022-11-08T03:48:30.755Z,80.8
2022-11-08T03:49:32.972Z,80.8
2022-11-08T03:50:36.435Z,80.7
2022-11-08T03:51:40.102Z,80.8
2022-11-08T03:52:42.651Z,80.8
2022-11-08T03:53:46.142Z,80.8
2022-11-08T03:54:48.928Z,80.8
2022-11-08T03:55:51.736Z,80.8
2022-11-08T03:56:54.907Z,80.9
2022-11-08T03:57:58.263Z,81
2022-11-08T03:59:01.396Z,80.9
2022-11-08T04:00:04.424Z,80.9
2022-11-08T04:01:07.597Z,80.9
2022-11-08T04:02:11.534Z,81
2022-11-08T04:03:15.119Z,81
2022-11-08T04:04:18.173Z,80.9
2022-11-08T04:05:20.797Z,80.9
2022-11-08T04:06:23.295Z,80.9
2022-11-08T04:07:26.117Z,80.8
2022-11-08T04:08:29.135Z,80.8
2022-11-08T04:09:32.032Z,80.8
2022-11-08T04:10:35.416Z,80.9
2022-11-08T04:11:38.414Z,80.9
2022-11-08T04:12:41.224Z,81.1
2022-11-08T04:13:44.409Z,81.1
2022-11-08T04:14:47.672Z,81.1
2022-11-08T04:15:50.726Z,80.9
2022-11-08T04:16:53.650Z,80.8
2022-11-08T04:17:56.065Z,80.9
2022-11-08T04:18:58.861Z,81
2022-11-08T04:20:01.692Z,81
2022-11-08T04:21:05.705Z,81.1
2022-11-08T04:22:08.545Z,81.3
2022-11-08T04:23:11.338Z,81.4
2022-11-08T04:24:14.597Z,81.3
2022-11-08T04:25:18.017Z,81.1
2022-11-08T04:26:21.236Z,81.5
2022-11-08T04:27:24.165Z,81.5
2022-11-08T04:28:27.571Z,81.5
2022-11-08T04:29:30.731Z,81.5
2022-11-08T04:30:33.244Z,81.5
2022-11-08T04:31:36.069Z,81.5
2022-11-08T04:32:39.244Z,81.5
2022-11-08T04:33:42.063Z,81.6
2022-11-08T04:34:44.781Z,81.5
2022-11-08T04:35:47.820Z,81.5
2022-11-08T04:36:50.700Z,81.6
2022-11-08T04:37:53.930Z,81.7
2022-11-08T04:38:56.895Z,81.8
2022-11-08T04:40:00.063Z,81.8
2022-11-08T04:41:03.534Z,81.9
2022-11-08T04:42:06.973Z,82.1
2022-11-08T04:43:10.326Z,82
2022-11-08T04:44:13.117Z,82.1
2022-11-08T04:45:15.655Z,82.3
2022-11-08T04:46:18.881Z,82.5
2022-11-08T04:47:21.745Z,82.4
2022-11-08T04:48:24.269Z,82.5
2022-11-08T04:49:27.151Z,82.5
2022-11-08T04:50:30.176Z,82.7
2022-11-08T04:51:33.599Z,82.9
2022-11-08T04:52:36.415Z,82.9
2022-11-08T04:53:39.479Z,82.9
2022-11-08T04:54:42.836Z,82.9
2022-11-08T04:55:45.937Z,82.9
2022-11-08T04:56:48.780Z,82.9
2022-11-08T04:57:51.956Z,82.9
2022-11-08T04:58:54.760Z,83.1
2022-11-08T04:59:57.589Z,83.4
2022-11-08T05:01:00.632Z,83.5
2022-11-08T05:02:04.484Z,83.6
2022-11-08T05:03:07.805Z,83.6
2022-11-08T05:04:11.045Z,83.6
2022-11-08T05:05:13.940Z,83.6
2022-11-08T05:06:16.517Z,83.4
2022-11-08T05:07:19.465Z,83.4
2022-11-08T05:08:22.524Z,83.6
2022-11-08T05:09:25.045Z,83.5
2022-11-08T05:10:28.042Z,83.5
2022-11-08T05:11:30.852Z,83.6
2022-11-08T05:12:34.241Z,83.6
2022-11-08T05:13:37.383Z,83.6
2022-11-08T05:14:41.376Z,83.7
2022-11-08T05:15:44.833Z,83.7
2022-11-08T05:16:48.537Z,83.7
2022-11-08T05:17:51.060Z,83.7
2022-11-08T05:18:54.479Z,83.8
2022-11-08T05:19:57.377Z,83.8
2022-11-08T05:21:00.803Z,83.8
2022-11-08T05:22:03.689Z,84
2022-11-08T05:23:06.599Z,84
2022-11-08T05:24:09.409Z,84
2022-11-08T05:25:12.749Z,84
2022-11-08T05:26:15.910Z,84
2022-11-08T05:27:19.196Z,84.1
2022-11-08T05:28:22.750Z,84.2
2022-11-08T05:29:26.217Z,84.3
2022-11-08T05:30:29.303Z,84.1
2022-11-08T05:31:32.416Z,84.1
2022-11-08T05:32:35.689Z,84.2
2022-11-08T05:33:38.483Z,84.2
2022-11-08T05:34:41.543Z,84.2
2022-11-08T05:35:44.055Z,84.2
2022-11-08T05:36:47.196Z,84.3
2022-11-08T05:37:49.644Z,84.2
2022-11-08T05:38:52.756Z,84.1
2022-11-08T05:39:55.482Z,84
2022-11-08T05:40:58.549Z,84
2022-11-08T05:42:01.991Z,84
2022-11-08T05:43:05.636Z,84.1
2022-11-08T05:44:09.096Z,84.1
2022-11-08T05:45:11.813Z,84.3
2022-11-08T05:46:14.637Z,84.3
2022-11-08T05:47:17.737Z,84.2
2022-11-08T05:48:22.039Z,84.2
2022-11-08T05:49:24.842Z,84.2
2022-11-08T05:50:28.050Z,84.2
2022-11-08T05:51:30.890Z,84.5
2022-11-08T05:52:33.610Z,84.5
2022-11-08T05:53:36.911Z,84.5
2022-11-08T05:54:39.937Z,84.6
2022-11-08T05:55:42.938Z,84.7
2022-11-08T05:56:45.649Z,84.7
2022-11-08T05:57:48.926Z,84.7
2022-11-08T05:58:52.042Z,84.8
2022-11-08T05:59:55.463Z,84.9
2022-11-08T06:00:58.328Z,84.8
2022-11-08T06:02:01.541Z,85
2022-11-08T06:03:05.112Z,85.2
2022-11-08T06:04:08.824Z,85.4
2022-11-08T06:05:11.282Z,85.4
2022-11-08T06:06:14.759Z,85.4
2022-11-08T06:07:18.111Z,85.4
2022-11-08T06:08:20.707Z,85.3
2022-11-08T06:09:24.139Z,85.2
2022-11-08T06:10:27.242Z,85.1
2022-11-08T06:11:30.955Z,85.3
2022-11-08T06:12:33.383Z,85.2
2022-11-08T06:13:36.174Z,85.1
2022-11-08T06:14:39.287Z,85.2
2022-11-08T06:15:42.748Z,85.5
2022-11-08T06:16:45.249Z,85.8
2022-11-08T06:17:48.656Z,85.9
2022-11-08T06:18:51.936Z,85.8
2022-11-08T06:19:55.093Z,85.8
2022-11-08T06:20:58.508Z,85.6
2022-11-08T06:22:01.872Z,85.6
2022-11-08T06:23:04.754Z,85.6
2022-11-08T06:24:07.275Z,85.6
2022-11-08T06:25:10.736Z,85.5
2022-11-08T06:26:14.117Z,85.4
2022-11-08T06:27:16.743Z,85.4
2022-11-08T06:28:19.452Z,85.3
2022-11-08T06:29:22.889Z,85.5
2022-11-08T06:30:26.083Z,85.5
2022-11-08T06:31:29.274Z,85.5
2022-11-08T06:32:32.699Z,85.5
2022-11-08T06:33:35.705Z,85.5
2022-11-08T06:34:39.206Z,85.4
2022-11-08T06:35:42.746Z,85.6
2022-11-08T06:36:45.356Z,85.5
2022-11-08T06:37:48.591Z,85.4
2022-11-08T06:38:51.785Z,85.3
2022-11-08T06:39:54.501Z,85.4
2022-11-08T06:40:58.126Z,85.3
2022-11-08T06:42:01.427Z,85.2
2022-11-08T06:43:04.512Z,85.2
2022-11-08T06:44:07.494Z,85.3
2022-11-08T06:45:10.339Z,85.2
2022-11-08T06:46:13.621Z,85.2
2022-11-08T06:47:16.429Z,85.1
2022-11-08T06:48:20.090Z,85.2
2022-11-08T06:49:23.540Z,85.3
2022-11-08T06:50:28.525Z,85.4
2022-11-08T06:51:31.878Z,85.6
2022-11-08T06:52:35.050Z,85.5
2022-11-08T06:53:38.295Z,85.5
2022-11-08T06:54:40.807Z,85.4
2022-11-08T06:55:43.809Z,85.4
2022-11-08T06:56:47.254Z,85.5
2022-11-08T06:57:50.220Z,85.4
2022-11-08T06:58:53.381Z,85.3
2022-11-08T06:59:56.236Z,85.3
2022-11-08T07:00:59.402Z,85.3
2022-11-08T07:02:02.430Z,85.3
2022-11-08T07:03:07.047Z,85.2
2022-11-08T07:04:10.330Z,85.1
2022-11-08T07:05:13.320Z,85.1
2022-11-08T07:06:16.366Z,85
2022-11-08T07:07:19.658Z,84.9
2022-11-08T07:08:25.395Z,84.8
2022-11-08T07:09:28.781Z,84.7
2022-11-08T07:10:31.725Z,84.6
2022-11-08T07:11:34.462Z,84.7
2022-11-08T07:12:37.900Z,84.7
2022-11-08T07:13:41.387Z,84.6
2022-11-08T07:14:44.453Z,84.6
2022-11-08T07:15:47.535Z,84.6
2022-11-08T07:16:51.280Z,84.6
2022-11-08T07:17:55.001Z,84.6
2022-11-08T07:18:58.835Z,84.6
2022-11-08T07:20:01.633Z,84.5
2022-11-08T07:21:04.589Z,84.5
2022-11-08T07:22:07.698Z,84.4
2022-11-08T07:23:11.201Z,84.4
2022-11-08T07:24:14.250Z,84.2
2022-11-08T07:25:17.644Z,84.1
2022-11-08T07:26:20.277Z,83.9
2022-11-08T07:27:22.905Z,83.8
2022-11-08T07:28:25.690Z,83.5
2022-11-08T07:29:29.248Z,83.4
2022-11-08T07:30:32.301Z,83.2
2022-11-08T07:31:35.643Z,83.1
2022-11-08T07:32:38.466Z,82.9
2022-11-08T07:33:41.772Z,82.8
2022-11-08T07:34:45.043Z,82.7
2022-11-08T07:35:47.845Z,82.5
2022-11-08T07:36:50.980Z,82.5
2022-11-08T07:37:53.816Z,82.5
2022-11-08T07:38:58.478Z,82.4
2022-11-08T07:40:09.601Z,82.3
2022-11-08T07:41:12.990Z,82.2
2022-11-08T07:42:15.902Z,82.1
2022-11-08T07:43:18.894Z,81.9
2022-11-08T07:44:22.061Z,81.8
2022-11-08T07:45:26.166Z,81.7
2022-11-08T07:46:29.239Z,81.6
2022-11-08T07:47:32.329Z,81.5
2022-11-08T07:48:35.127Z,81.3
2022-11-08T07:49:38.031Z,81.2
2022-11-08T07:50:42.285Z,81
2022-11-08T07:51:46.433Z,80.8
2022-11-08T07:52:49.819Z,80.7
2022-11-08T07:53:53.029Z,80.6
2022-11-08T07:54:56.391Z,80.5
2022-11-08T07:55:59.819Z,80.4
2022-11-08T07:57:02.951Z,80.4
2022-11-08T07:58:05.957Z,80.3
2022-11-08T07:59:08.839Z,80.1
2022-11-08T08:00:12.182Z,80.1
2022-11-08T08:01:15.613Z,79.9
2022-11-08T08:02:19.505Z,79.9
2022-11-08T08:03:25.403Z,79.8
2022-11-08T08:04:28.189Z,79.7
2022-11-08T08:05:30.656Z,79.6
2022-11-08T08:06:34.133Z,79.5
2022-11-08T08:07:37.513Z,79.4
2022-11-08T08:08:40.628Z,79.2
2022-11-08T08:09:44.086Z,79
2022-11-08T08:10:47.817Z,78.7
2022-11-08T08:11:51.356Z,78.5
2022-11-08T08:12:55.077Z,78.2
2022-11-08T08:13:57.868Z,78.1
2022-11-08T08:15:00.451Z,78
2022-11-08T08:16:03.858Z,77.9
2022-11-08T08:17:07.593Z,77.8
2022-11-08T08:18:10.700Z,77.7
2022-11-08T08:19:14.321Z,77.6
2022-11-08T08:20:17.661Z,77.5
2022-11-08T08:21:20.699Z,77
2022-11-08T08:22:23.878Z,76.7
2022-11-08T08:23:27.623Z,76.5
2022-11-08T08:24:30.420Z,76.3
2022-11-08T08:25:33.553Z,76.3
2022-11-08T08:26:37.549Z,75.8
2022-11-08T08:27:40.495Z,75.5
2022-11-08T08:28:43.333Z,75.4
2022-11-08T08:29:46.874Z,75.5
2022-11-08T08:30:50.239Z,75.2
2022-11-08T08:31:54.050Z,75
2022-11-08T08:33:30.484Z,74.8
2022-11-08T08:34:33.875Z,74.5
2022-11-08T08:35:37.307Z,74.5
2022-11-08T08:36:40.408Z,74.5
2022-11-08T08:37:43.956Z,74.6
2022-11-08T08:38:47.409Z,74.5
2022-11-08T08:39:50.113Z,74.2
2022-11-08T08:40:53.295Z,74.3
2022-11-08T08:41:56.457Z,74.2
2022-11-08T08:42:59.529Z,74
2022-11-08T08:44:02.438Z,73.8
2022-11-08T08:45:07.567Z,73.6
2022-11-08T08:46:18.036Z,73.6
2022-11-08T08:47:20.930Z,73.5
2022-11-08T08:48:24.171Z,73.3
2022-11-08T08:49:27.405Z,73.1
2022-11-08T08:50:30.704Z,72.8
2022-11-08T08:51:33.798Z,72.4
2022-11-08T08:52:36.434Z,72.1
2022-11-08T08:53:39.815Z,72
2022-11-08T08:54:43.326Z,71.8
2022-11-08T08:55:46.395Z,71.6
2022-11-08T08:56:49.851Z,71.5
2022-11-08T08:57:53.496Z,70.9
2022-11-08T09:02:43.803Z,69.8
2022-11-08T09:03:47.119Z,69.7
2022-11-08T09:04:50.559Z,69.4
2022-11-08T09:05:53.222Z,69.3
2022-11-08T09:06:56.611Z,68.6
2022-11-08T09:07:59.595Z,68
2022-11-08T09:09:03.605Z,67.5
2022-11-08T09:10:06.788Z,67.4
2022-11-08T09:11:10.207Z,67.5
2022-11-08T09:12:15.888Z,67.5
2022-11-08T09:13:21.071Z,67.3
2022-11-08T09:14:24.505Z,67.2
2022-11-08T09:15:27.924Z,67.1
2022-11-08T09:16:31.666Z,66.5
2022-11-08T09:17:34.906Z,65.9
2022-11-08T09:18:38.176Z,65
2022-11-08T09:19:41.525Z,64.3
2022-11-08T09:20:45.272Z,63.7
2022-11-08T09:21:48.147Z,63.7
2022-11-08T09:22:51.695Z,63.6
2022-11-08T09:23:54.816Z,64
2022-11-08T09:24:58.108Z,63.8
2022-11-08T09:26:01.197Z,63.9
2022-11-08T09:27:04.928Z,63.6
2022-11-08T09:28:08.101Z,63.7
2022-11-08T09:29:11.533Z,63.8
2022-11-08T09:30:14.418Z,63.6
2022-11-08T09:31:17.246Z,63.1
2022-11-08T09:33:02.750Z,62.9
2022-11-08T09:34:07.124Z,62.3
2022-11-08T09:35:10.717Z,62.6
2022-11-08T09:36:13.869Z,62.9
2022-11-08T09:37:16.977Z,63.1
2022-11-08T09:38:21.506Z,63.1
2022-11-08T09:39:24.972Z,62.8
2022-11-08T09:40:28.496Z,62.4
2022-11-08T09:41:31.869Z,62.8
2022-11-08T09:42:34.768Z,63.1
2022-11-08T09:43:37.850Z,63.1
2022-11-08T09:44:41.514Z,63.1
2022-11-08T09:45:44.687Z,63.1
2022-11-08T09:46:48.169Z,63.5
2022-11-08T09:47:54.653Z,63.9
2022-11-08T09:48:57.803Z,63.7
2022-11-08T09:50:01.567Z,63.9
2022-11-08T09:51:04.793Z,64
2022-11-08T09:52:07.527Z,64.2
2022-11-08T09:53:10.532Z,64
2022-11-08T09:54:20.728Z,63.9
2022-11-08T09:55:23.928Z,63.5
2022-11-08T09:56:27.400Z,63.5
2022-11-08T09:57:30.381Z,63.3
2022-11-08T09:58:32.931Z,63.2
2022-11-08T09:59:35.857Z,63.1
2022-11-08T10:00:39.359Z,62.8
2022-11-08T10:01:42.764Z,62.4
2022-11-08T10:02:45.799Z,62.2
2022-11-08T10:03:49.154Z,61.8
2022-11-08T10:04:51.308Z,61.5
2022-11-08T10:05:54.599Z,60.9
2022-11-08T10:07:04.282Z,60.8
2022-11-08T10:08:07.224Z,60.3
2022-11-08T10:09:10.936Z,60.1
2022-11-08T10:10:14.081Z,59.9
2022-11-08T10:11:17.956Z,59.7
2022-11-08T10:12:21.687Z,59.6
2022-11-08T10:13:24.553Z,59.2
2022-11-08T10:14:27.273Z,59
2022-11-08T10:15:30.683Z,59.3
2022-11-08T10:16:34.159Z,59.5
2022-11-08T10:17:37.325Z,59.1
2022-11-08T10:18:41.066Z,58.9
2022-11-08T10:19:44.525Z,58.8
2022-11-08T10:20:48.086Z,58.7
2022-11-08T10:21:51.271Z,58.8
2022-11-08T10:22:54.824Z,58.5
2022-11-08T10:23:57.906Z,58.6
2022-11-08T10:25:01.295Z,58.3
2022-11-08T10:26:04.366Z,58.1
2022-11-08T10:27:06.877Z,58
2022-11-08T10:28:10.530Z,57.6
2022-11-08T10:29:13.878Z,57.3
2022-11-08T10:30:16.450Z,56.5
2022-11-08T10:31:20.127Z,56.6
2022-11-08T10:32:24.826Z,57.1
2022-11-08T10:33:27.841Z,57.5
2022-11-08T10:34:30.976Z,57.3
2022-11-08T10:35:33.970Z,57
2022-11-08T10:36:37.790Z,56.8
2022-11-08T10:37:40.528Z,56.4
2022-11-08T10:38:43.446Z,56.3
2022-11-08T10:39:46.541Z,56.6
2022-11-08T10:40:49.332Z,56.9
2022-11-08T10:41:52.322Z,56.8
2022-11-08T10:42:54.799Z,56.9
2022-11-08T10:43:58.179Z,56.4
2022-11-08T10:45:01.006Z,55.4
2022-11-08T10:46:03.558Z,56
2022-11-08T10:47:06.169Z,56.4
2022-11-08T10:48:09.245Z,56.7
2022-11-08T10:49:12.583Z,56.7
2022-11-08T10:50:15.541Z,56.6
2022-11-08T10:51:18.629Z,56
2022-11-08T10:52:21.813Z,56.7
2022-11-08T10:53:25.265Z,56.9
2022-11-08T10:54:27.836Z,57
2022-11-08T10:55:30.453Z,56.1
2022-11-08T10:56:38.879Z,56.2
2022-11-08T10:57:41.884Z,56.4
2022-11-08T10:58:44.344Z,56.7
2022-11-08T10:59:47.753Z,56.6
2022-11-08T11:00:50.549Z,56.5
2022-11-08T11:01:53.670Z,55.9
2022-11-08T11:02:56.627Z,55.7
2022-11-08T11:03:59.970Z,56
2022-11-08T11:05:02.135Z,56.3
2022-11-08T11:06:05.518Z,56.6
2022-11-08T11:07:08.224Z,56.4
2022-11-08T11:08:11.073Z,56.9
2022-11-08T11:09:14.550Z,57
2022-11-08T11:10:18.085Z,57.3
2022-11-08T11:11:20.481Z,57.2
2022-11-08T11:12:23.644Z,56.7
2022-11-08T11:14:29.999Z,56.8
2022-11-08T11:15:33.458Z,57
2022-11-08T11:16:36.457Z,56.9
2022-11-08T11:17:41.732Z,57
2022-11-08T11:18:45.014Z,57.2
2022-11-08T11:19:48.656Z,57.1
2022-11-08T11:20:52.102Z,57.1
2022-11-08T11:21:55.602Z,56.7
2022-11-08T11:22:58.664Z,57.1
2022-11-08T11:24:01.472Z,57.5
2022-11-08T11:25:04.973Z,57.7
2022-11-08T11:26:07.991Z,57.7
2022-11-08T11:27:10.908Z,57.6
2022-11-08T11:28:13.426Z,57.6
2022-11-08T11:29:16.028Z,57.7
2022-11-08T11:30:18.860Z,58.3
2022-11-08T11:31:22.321Z,57.9
2022-11-08T11:32:25.696Z,58.5
2022-11-08T11:33:29.415Z,58.8
2022-11-08T11:34:32.398Z,58.7
2022-11-08T11:35:35.875Z,58.4
2022-11-08T11:36:38.115Z,58.6
2022-11-08T11:37:40.659Z,57.9
2022-11-08T11:38:43.463Z,57.9
2022-11-08T11:39:45.901Z,57.9
2022-11-08T11:40:49.304Z,57.9
2022-11-08T11:41:52.947Z,57.8
2022-11-08T11:42:56.070Z,57.9
2022-11-08T11:43:58.929Z,58.1
2022-11-08T11:45:01.993Z,57.6
2022-11-08T11:46:05.326Z,57.6
2022-11-08T11:47:08.431Z,58
2022-11-08T11:48:11.667Z,58.3
2022-11-08T11:49:14.487Z,58.6
2022-11-08T11:50:17.082Z,58.3
2022-11-08T11:51:20.340Z,58.4
2022-11-08T11:52:23.751Z,58
2022-11-08T11:53:26.669Z,58.2
2022-11-08T11:54:30.332Z,58.2
2022-11-08T11:55:32.770Z,58.1
2022-11-08T11:56:35.701Z,58.2
2022-11-08T11:57:38.523Z,58.5
2022-11-08T11:58:41.572Z,58
2022-11-08T11:59:44.568Z,57.8
2022-11-08T12:00:47.566Z,56.7
2022-11-08T12:01:51.374Z,57.1
2022-11-08T12:02:54.651Z,57.4
2022-11-08T12:03:57.852Z,57.5
2022-11-08T12:04:59.737Z,57.5
2022-11-08T12:06:03.215Z,57.8
2022-11-08T12:07:07.433Z,57.5
2022-11-08T12:08:11.248Z,57.7
2022-11-08T12:09:14.855Z,58.2
2022-11-08T12:10:18.320Z,57.9
2022-11-08T12:11:21.468Z,58.2
2022-11-08T12:12:24.210Z,58.2
2022-11-08T12:13:27.035Z,58.3
2022-11-08T12:14:29.879Z,57.6
2022-11-08T12:15:32.766Z,57.5
2022-11-08T12:16:35.846Z,57.2
2022-11-08T12:17:39.293Z,57.2
2022-11-08T12:18:46.695Z,57.6
2022-11-08T12:19:51.334Z,57.4
2022-11-08T12:20:54.408Z,57.9
2022-11-08T12:21:57.735Z,57.7
2022-11-08T12:23:00.831Z,56.9
2022-11-08T12:24:03.377Z,57.1
2022-11-08T12:25:06.115Z,58.1
2022-11-08T12:26:08.981Z,57.7
2022-11-08T12:27:11.698Z,57.4
2022-11-08T12:28:14.520Z,57.9
2022-11-08T12:29:19.013Z,57.9
2022-11-08T12:30:22.117Z,58.1
2022-11-08T12:31:24.841Z,57.5
2022-11-08T12:32:28.319Z,57.6
2022-11-08T12:33:31.783Z,57.7
2022-11-08T12:34:34.434Z,58.2
2022-11-08T12:35:37.268Z,58.3
2022-11-08T12:36:40.324Z,58.2
2022-11-08T12:37:43.787Z,58.9
2022-11-08T12:38:46.938Z,58.3
2022-11-08T12:39:50.486Z,58.2
2022-11-08T12:40:53.662Z,58.4
2022-11-08T12:41:56.178Z,58.5
2022-11-08T12:42:58.970Z,58.6
2022-11-08T12:44:02.717Z,59.5
2022-11-08T12:45:06.811Z,59.4
2022-11-08T12:46:09.926Z,58.8
2022-11-08T12:47:13.938Z,58.9
2022-11-08T12:48:18.885Z,58.9
2022-11-08T12:49:23.711Z,58.9
2022-11-08T12:50:27.170Z,58.8
2022-11-08T12:51:29.689Z,59.3
2022-11-08T12:52:32.685Z,59.1
2022-11-08T12:53:35.776Z,59.4
2022-11-08T12:54:38.371Z,60
2022-11-08T12:55:41.844Z,60.9
2022-11-08T12:56:44.882Z,60.1
2022-11-08T12:57:47.877Z,59.5
2022-11-08T12:58:50.601Z,60.1
2022-11-08T12:59:54.239Z,59.6
2022-11-08T13:00:57.803Z,60.1
2022-11-08T13:02:01.828Z,61.6
2022-11-08T13:03:04.997Z,60
2022-11-08T13:04:08.257Z,59.8
2022-11-08T13:05:11.071Z,60.6
2022-11-08T13:06:14.353Z,60.2
2022-11-08T13:07:17.545Z,60.3
2022-11-08T13:08:22.430Z,60.8
2022-11-08T13:09:26.231Z,60.4
2022-11-08T13:10:29.332Z,60.6
2022-11-08T13:11:32.680Z,61
2022-11-08T13:12:36.093Z,60.9
2022-11-08T13:13:39.372Z,61.2
2022-11-08T13:14:43.017Z,61.1
2022-11-08T13:15:46.285Z,61.1
2022-11-08T13:16:49.692Z,61.3
2022-11-08T13:17:52.868Z,61.2
2022-11-08T13:18:56.281Z,61.3
2022-11-08T13:20:06.845Z,61.4
2022-11-08T13:21:09.908Z,62
2022-11-08T13:22:12.737Z,61.5
2022-11-08T13:23:15.519Z,61.7
2022-11-08T13:24:46.391Z,61.9
2022-11-08T13:25:49.712Z,62.1
2022-11-08T13:26:59.923Z,62
2022-11-08T13:28:03.331Z,62.3
2022-11-08T13:29:06.839Z,62.8
2022-11-08T13:30:09.446Z,62.5
2022-11-08T13:31:12.742Z,62.6
2022-11-08T13:32:15.836Z,63.5
2022-11-08T13:33:18.933Z,63.4
2022-11-08T13:34:21.385Z,63.2
2022-11-08T13:35:24.845Z,64.1
2022-11-08T13:36:28.076Z,63.4
2022-11-08T13:37:31.252Z,63.9
2022-11-08T13:38:34.255Z,63.8
2022-11-08T13:39:36.866Z,64
2022-11-08T13:40:40.346Z,64
2022-11-08T13:41:43.860Z,63.7
2022-11-08T13:42:46.489Z,63.9
2022-11-08T13:43:49.917Z,63.7
2022-11-08T13:44:53.138Z,63.8
2022-11-08T13:45:55.850Z,64
2022-11-08T13:46:59.284Z,64.1
2022-11-08T13:48:02.102Z,64.3
2022-11-08T13:49:05.077Z,64.3
2022-11-08T13:50:08.539Z,64.3
2022-11-08T13:51:11.565Z,64.4
2022-11-08T13:52:14.126Z,64.7
2022-11-08T13:53:17.587Z,64.7
2022-11-08T13:54:20.119Z,64.7
2022-11-08T13:55:23.378Z,64.9
2022-11-08T13:56:26.841Z,65
2022-11-08T13:57:30.212Z,65.1
2022-11-08T13:58:33.494Z,65.1
2022-11-08T13:59:36.992Z,65.2
2022-11-08T14:00:40.426Z,65.3
2022-11-08T14:01:43.661Z,65.4
2022-11-08T14:02:47.220Z,65.4
2022-11-08T14:03:49.763Z,65.3
2022-11-08T14:04:52.935Z,65.4
2022-11-08T14:05:56.662Z,65.3
2022-11-08T14:06:59.799Z,65.2
2022-11-08T14:08:02.983Z,65.2
2022-11-08T14:09:06.573Z,65.2
2022-11-08T14:10:09.661Z,65.2
2022-11-08T14:11:12.455Z,65
2022-11-08T14:12:15.259Z,64.9
2022-11-08T14:13:19.806Z,64.6